Time;durP1;ratioP1;P1;durP2;ratioP2;P2;SDS_P1;SDS_P2;PMS_P1;PMS_P2;Temp;Humidity;BMP_temperature;BMP_pressure;BME280_temperature;BME280_humidity;BME280_pressure;Samples;Min_cycle;Max_cycle;Signal;HPM_P1;HPM_P2
2023/03/09 00:01:46;;;;;;;8.40;7.10;;;;;;;;;;5081369;28;20638;-63
2023/03/09 00:04:16;;;;;;;6.53;5.30;;;;;;;;;;5068090;28;20206;-63
2023/03/09 00:06:45;;;;;;;7.47;5.60;;;;;;;;;;5081229;28;20290;-63
2023/03/09 00:09:14;;;;;;;10.10;7.20;;;;;;;;;;5081151;28;20230;-63
2023/03/09 00:11:42;;;;;;;6.87;5.80;;;;;;;;;;5081581;28;20293;-63
2023/03/09 00:14:10;;;;;;;10.10;6.57;;;;;;;;;;5081536;28;20214;-63
2023/03/09 00:16:39;;;;;;;6.60;5.10;;;;;;;;;;5081208;28;20236;-63
2023/03/09 00:19:07;;;;;;;8.20;5.20;;;;;;;;;;5080839;28;20293;-62
2023/03/09 00:21:38;;;;;;;8.63;5.60;;;;;;;;;;5081245;28;20241;-63
2023/03/09 00:24:07;;;;;;;11.50;6.07;;;;;;;;;;5081008;28;20250;-62
2023/03/09 00:26:36;;;;;;;9.30;5.80;;;;;;;;;;5081125;28;20206;-62
2023/03/09 00:29:05;;;;;;;12.60;6.90;;;;;;;;;;5081097;28;20206;-62
2023/03/09 00:31:33;;;;;;;6.83;4.97;;;;;;;;;;5078193;28;20207;-62
2023/03/09 00:34:01;;;;;;;6.27;4.70;;;;;;;;;;5072787;28;20289;-62
2023/03/09 00:36:29;;;;;;;11.07;5.40;;;;;;;;;;5080941;28;20257;-62
2023/03/09 00:38:58;;;;;;;6.30;4.23;;;;;;;;;;5080842;28;20222;-62
2023/03/09 00:41:28;;;;;;;7.07;5.20;;;;;;;;;;5086246;28;20236;-62
2023/03/09 00:43:56;;;;;;;7.90;5.30;;;;;;;;;;5101221;28;20209;-62
2023/03/09 00:46:24;;;;;;;5.17;3.70;;;;;;;;;;5100653;28;20236;-62
2023/03/09 00:48:52;;;;;;;5.97;4.53;;;;;;;;;;5100620;28;20237;-62
2023/03/09 00:51:20;;;;;;;8.80;5.13;;;;;;;;;;5100750;28;20237;-62
2023/03/09 00:53:48;;;;;;;5.80;4.23;;;;;;;;;;5100969;28;20247;-62
2023/03/09 00:56:19;;;;;;;6.37;3.90;;;;;;;;;;5099197;28;20264;-63
2023/03/09 00:58:47;;;;;;;5.53;3.30;;;;;;;;;;5100697;28;20205;-62
2023/03/09 01:01:16;;;;;;;4.87;3.03;;;;;;;;;;5100451;28;20229;-63
2023/03/09 01:03:44;;;;;;;3.93;3.00;;;;;;;;;;5100264;28;20211;-63
2023/03/09 01:06:12;;;;;;;5.87;3.17;;;;;;;;;;5100809;28;20240;-62
2023/03/09 01:08:40;;;;;;;4.70;2.93;;;;;;;;;;5100275;28;20576;-62
2023/03/09 01:11:09;;;;;;;3.60;3.30;;;;;;;;;;5100606;28;20229;-62
2023/03/09 01:13:38;;;;;;;5.03;3.07;;;;;;;;;;5100283;28;20209;-62
2023/03/09 01:16:07;;;;;;;4.13;2.83;;;;;;;;;;5100458;28;20275;-62
2023/03/09 01:18:35;;;;;;;3.07;2.67;;;;;;;;;;5100158;28;20206;-62
2023/03/09 01:21:03;;;;;;;23.67;11.97;;;;;;;;;;5100366;28;20260;-63
2023/03/09 01:23:31;;;;;;;19.20;9.20;;;;;;;;;;5100269;28;20209;-63
2023/03/09 01:25:59;;;;;;;6.57;3.93;;;;;;;;;;5100376;28;20206;-62
2023/03/09 01:28:27;;;;;;;3.80;3.37;;;;;;;;;;5100247;28;20237;-62
2023/03/09 01:30:56;;;;;;;4.20;2.87;;;;;;;;;;5099804;28;20316;-63
2023/03/09 01:33:24;;;;;;;5.27;2.40;;;;;;;;;;5078111;28;20569;-63
2023/03/09 01:35:52;;;;;;;2.90;2.60;;;;;;;;;;5080710;28;20198;-62
2023/03/09 01:38:20;;;;;;;6.43;2.60;;;;;;;;;;5078810;28;20707;-63
2023/03/09 01:40:48;;;;;;;4.40;2.63;;;;;;;;;;5083551;28;20289;-62
2023/03/09 01:43:27;;;;;;;3.27;2.30;;;;;;;;;;5087800;28;20281;-62
2023/03/09 01:46:30;;;;;;;5.57;2.60;;;;;;;;;;5082767;28;20281;-62
2023/03/09 01:49:02;;;;;;;6.33;3.03;;;;;;;;;;5018321;28;20200;-62
2023/03/09 01:51:31;;;;;;;5.73;3.00;;;;;;;;;;5027484;28;20242;-62
2023/03/09 01:54:03;;;;;;;4.37;3.13;;;;;;;;;;5057003;28;20282;-62
2023/03/09 01:56:31;;;;;;;4.13;2.70;;;;;;;;;;5088235;28;20235;-62
2023/03/09 01:59:02;;;;;;;2.67;2.40;;;;;;;;;;5089046;28;20238;-63
2023/03/09 02:01:30;;;;;;;5.00;2.90;;;;;;;;;;5088227;28;20205;-63
2023/03/09 02:04:01;;;;;;;4.47;2.70;;;;;;;;;;5088386;28;20194;-62
2023/03/09 02:06:31;;;;;;;4.03;2.47;;;;;;;;;;5082800;28;20194;-62
2023/03/09 02:09:01;;;;;;;4.93;3.10;;;;;;;;;;5086514;28;20312;-62
2023/03/09 02:11:31;;;;;;;3.17;2.87;;;;;;;;;;5085135;28;20281;-61
2023/03/09 02:14:00;;;;;;;4.20;2.57;;;;;;;;;;5087352;28;20201;-62
2023/03/09 02:16:28;;;;;;;7.10;2.83;;;;;;;;;;5084314;28;20263;-62
2023/03/09 02:18:56;;;;;;;5.17;3.03;;;;;;;;;;5087091;28;20267;-62
2023/03/09 02:21:29;;;;;;;3.63;2.40;;;;;;;;;;5084471;28;20200;-62
2023/03/09 02:24:02;;;;;;;4.00;2.27;;;;;;;;;;5088243;28;20200;-63
2023/03/09 02:26:35;;;;;;;5.77;2.23;;;;;;;;;;5085600;28;20202;-63
2023/03/09 02:29:05;;;;;;;3.10;2.13;;;;;;;;;;5086288;28;20207;-62
2023/03/09 02:31:33;;;;;;;6.03;2.30;;;;;;;;;;5088187;28;20210;-62
2023/03/09 02:34:01;;;;;;;2.93;2.00;;;;;;;;;;5086477;28;20205;-62
2023/03/09 02:36:29;;;;;;;3.70;1.93;;;;;;;;;;5084497;28;20232;-62
2023/03/09 02:38:59;;;;;;;5.23;2.00;;;;;;;;;;5086990;28;20258;-64
2023/03/09 02:41:27;;;;;;;3.20;2.27;;;;;;;;;;5086277;28;20261;-64
2023/03/09 02:43:57;;;;;;;4.37;3.00;;;;;;;;;;5087010;28;20259;-64
2023/03/09 02:46:26;;;;;;;5.37;3.07;;;;;;;;;;5087896;28;20557;-64
2023/03/09 02:48:55;;;;;;;4.60;3.00;;;;;;;;;;5086918;28;20234;-64
2023/03/09 02:51:24;;;;;;;3.50;2.80;;;;;;;;;;5085852;28;20199;-64
2023/03/09 02:53:52;;;;;;;4.20;2.60;;;;;;;;;;5078065;28;20285;-64
2023/03/09 02:56:20;;;;;;;6.07;3.33;;;;;;;;;;5069497;28;20662;-64
2023/03/09 02:58:48;;;;;;;5.67;3.33;;;;;;;;;;5076095;28;20792;-64
2023/03/09 03:01:16;;;;;;;5.77;3.50;;;;;;;;;;5077787;28;20280;-65
2023/03/09 03:03:45;;;;;;;6.13;3.30;;;;;;;;;;5077433;28;20202;-65
2023/03/09 03:06:13;;;;;;;4.03;3.63;;;;;;;;;;5078287;28;20241;-65
2023/03/09 03:08:41;;;;;;;4.47;3.70;;;;;;;;;;5077632;28;20261;-64
2023/03/09 03:11:09;;;;;;;7.03;3.70;;;;;;;;;;5078068;28;20233;-65
2023/03/09 03:13:37;;;;;;;5.87;3.70;;;;;;;;;;5078126;28;20213;-65
2023/03/09 03:16:05;;;;;;;6.50;3.73;;;;;;;;;;5077894;28;20238;-64
2023/03/09 03:18:33;;;;;;;6.43;3.97;;;;;;;;;;5077396;28;20599;-64
2023/03/09 03:21:03;;;;;;;6.50;4.00;;;;;;;;;;5077535;28;20309;-64
2023/03/09 03:23:31;;;;;;;8.53;5.23;;;;;;;;;;5078082;28;20210;-65
2023/03/09 03:26:04;;;;;;;6.13;4.30;;;;;;;;;;5077912;28;20217;-64
2023/03/09 03:28:32;;;;;;;10.23;5.93;;;;;;;;;;5078050;28;20213;-64
2023/03/09 03:31:00;;;;;;;7.07;5.40;;;;;;;;;;5068980;28;20222;-65
2023/03/09 03:33:28;;;;;;;6.73;5.20;;;;;;;;;;5081471;28;20270;-64
2023/03/09 03:35:56;;;;;;;6.00;5.40;;;;;;;;;;5097951;28;20724;-64
2023/03/09 03:38:25;;;;;;;10.33;5.70;;;;;;;;;;5097883;28;20229;-64
2023/03/09 03:40:53;;;;;;;7.40;5.57;;;;;;;;;;5080694;28;20221;-64
2023/03/09 03:43:21;;;;;;;7.30;4.93;;;;;;;;;;5077869;28;20206;-64
2023/03/09 03:45:49;;;;;;;8.57;4.67;;;;;;;;;;5077660;28;20206;-64
2023/03/09 03:48:17;;;;;;;6.33;4.83;;;;;;;;;;5077322;28;20206;-64
2023/03/09 03:50:45;;;;;;;10.70;5.90;;;;;;;;;;5077449;28;20258;-64
2023/03/09 03:53:13;;;;;;;9.27;5.77;;;;;;;;;;5077811;28;20210;-64
2023/03/09 03:55:42;;;;;;;8.67;6.33;;;;;;;;;;5077414;28;20718;-64
2023/03/09 03:58:10;;;;;;;7.47;5.17;;;;;;;;;;5077910;28;20229;-64
2023/03/09 04:00:38;;;;;;;10.13;5.43;;;;;;;;;;5077274;28;20230;-64
2023/03/09 04:03:06;;;;;;;7.30;5.10;;;;;;;;;;5077766;28;20221;-64
2023/03/09 04:05:34;;;;;;;7.77;5.17;;;;;;;;;;5077330;28;20220;-64
2023/03/09 04:08:03;;;;;;;9.77;4.93;;;;;;;;;;5077324;28;20237;-64
2023/03/09 04:10:30;;;;;;;5.90;4.57;;;;;;;;;;5077201;28;20297;-65
2023/03/09 04:13:00;;;;;;;10.63;4.67;;;;;;;;;;5077618;28;20293;-65
2023/03/09 04:15:28;;;;;;;6.87;4.80;;;;;;;;;;5077480;28;20233;-64
2023/03/09 04:17:56;;;;;;;7.30;4.67;;;;;;;;;;5077125;28;20230;-64
2023/03/09 04:20:24;;;;;;;6.40;4.97;;;;;;;;;;5077126;28;20321;-65
2023/03/09 04:22:52;;;;;;;8.73;4.97;;;;;;;;;;5077536;28;20214;-64
2023/03/09 04:25:20;;;;;;;5.03;3.63;;;;;;;;;;5077433;28;20210;-65
2023/03/09 04:27:48;;;;;;;6.10;4.33;;;;;;;;;;5077191;28;20680;-65
2023/03/09 04:30:20;;;;;;;6.33;4.07;;;;;;;;;;5077060;28;20233;-64
2023/03/09 04:32:48;;;;;;;6.33;4.50;;;;;;;;;;5080931;28;20206;-64
2023/03/09 04:35:16;;;;;;;8.23;4.90;;;;;;;;;;5080598;28;20610;-64
2023/03/09 04:37:45;;;;;;;5.33;4.53;;;;;;;;;;5080985;28;20233;-64
2023/03/09 04:40:13;;;;;;;6.73;4.23;;;;;;;;;;5080610;28;20689;-64
2023/03/09 04:42:41;;;;;;;7.83;3.90;;;;;;;;;;5067596;28;20673;-65
2023/03/09 04:45:10;;;;;;;5.77;3.83;;;;;;;;;;5080578;28;20677;-65
2023/03/09 04:47:39;;;;;;;5.10;3.57;;;;;;;;;;5080509;28;20270;-65
2023/03/09 04:50:07;;;;;;;4.80;3.03;;;;;;;;;;5080122;28;20228;-64
2023/03/09 04:52:35;;;;;;;10.40;3.90;;;;;;;;;;5080495;28;20238;-64
2023/03/09 04:55:03;;;;;;;7.67;4.00;;;;;;;;;;5080656;28;20296;-65
2023/03/09 04:57:31;;;;;;;5.83;3.57;;;;;;;;;;5080760;28;20252;-65
2023/03/09 04:59:59;;;;;;;7.20;4.07;;;;;;;;;;5080339;28;20226;-64
2023/03/09 05:02:28;;;;;;;5.57;3.50;;;;;;;;;;5080270;28;20657;-64
2023/03/09 05:04:57;;;;;;;5.17;3.50;;;;;;;;;;5080115;28;20221;-64
2023/03/09 05:07:25;;;;;;;8.00;3.87;;;;;;;;;;5080130;28;20676;-64
2023/03/09 05:09:53;;;;;;;8.73;4.27;;;;;;;;;;5080258;28;20226;-64
2023/03/09 05:12:21;;;;;;;5.23;4.10;;;;;;;;;;5080402;28;20218;-64
2023/03/09 05:14:49;;;;;;;7.23;3.87;;;;;;;;;;5080307;28;20214;-65
2023/03/09 05:17:17;;;;;;;5.43;4.03;;;;;;;;;;5080007;28;20241;-66
2023/03/09 05:19:45;;;;;;;6.53;4.07;;;;;;;;;;5079874;28;20265;-66
2023/03/09 05:22:14;;;;;;;9.10;4.07;;;;;;;;;;5079841;28;20234;-66
2023/03/09 05:24:42;;;;;;;5.37;3.67;;;;;;;;;;5080248;28;20202;-66
2023/03/09 05:27:12;;;;;;;4.73;4.23;;;;;;;;;;5079855;28;20220;-66
2023/03/09 05:29:40;;;;;;;5.40;3.40;;;;;;;;;;5080066;28;20226;-66
2023/03/09 05:32:08;;;;;;;5.90;4.00;;;;;;;;;;5067113;28;20207;-66
2023/03/09 05:34:36;;;;;;;7.93;3.80;;;;;;;;;;5079759;28;20202;-66
2023/03/09 05:37:05;;;;;;;7.17;4.60;;;;;;;;;;5079951;28;20218;-66
2023/03/09 05:39:37;;;;;;;8.13;4.13;;;;;;;;;;5079453;28;20574;-66
2023/03/09 05:42:05;;;;;;;6.63;4.33;;;;;;;;;;5078795;28;20583;-66
2023/03/09 05:44:33;;;;;;;6.27;4.13;;;;;;;;;;5079587;28;20216;-66
2023/03/09 05:47:01;;;;;;;9.33;5.57;;;;;;;;;;5079288;28;20214;-67
2023/03/09 05:49:30;;;;;;;7.67;3.77;;;;;;;;;;5079306;28;20628;-65
2023/03/09 05:51:59;;;;;;;6.40;4.30;;;;;;;;;;5079317;28;20214;-64
2023/03/09 05:54:27;;;;;;;5.30;4.03;;;;;;;;;;5079811;28;20267;-65
2023/03/09 05:56:56;;;;;;;9.63;4.73;;;;;;;;;;5079596;28;20245;-65
2023/03/09 05:59:24;;;;;;;7.87;4.23;;;;;;;;;;5076863;28;20617;-64
2023/03/09 06:01:52;;;;;;;12.40;4.60;;;;;;;;;;5075040;28;20206;-63
2023/03/09 06:04:20;;;;;;;4.27;3.63;;;;;;;;;;5078675;28;20194;-63
2023/03/09 06:06:48;;;;;;;6.73;3.87;;;;;;;;;;5081568;28;20198;-62
2023/03/09 06:09:17;;;;;;;11.13;6.00;;;;;;;;;;5079209;28;20229;-63
2023/03/09 06:11:44;;;;;;;6.87;4.43;;;;;;;;;;5062028;28;20666;-65
2023/03/09 06:14:14;;;;;;;7.63;4.03;;;;;;;;;;5061495;28;20211;-65
2023/03/09 06:16:42;;;;;;;10.20;4.60;;;;;;;;;;5060092;28;20230;-64
2023/03/09 06:19:12;;;;;;;7.27;4.60;;;;;;;;;;5059097;28;20262;-64
2023/03/09 06:21:40;;;;;;;9.37;4.93;;;;;;;;;;5059606;28;20207;-65
2023/03/09 06:24:09;;;;;;;6.60;4.93;;;;;;;;;;5059405;28;20230;-65
2023/03/09 06:26:37;;;;;;;8.37;4.43;;;;;;;;;;5079686;28;20210;-65
2023/03/09 06:29:05;;;;;;;6.07;4.87;;;;;;;;;;5076631;28;20675;-65
2023/03/09 06:31:35;;;;;;;7.77;4.27;;;;;;;;;;5080839;28;20222;-65
2023/03/09 06:34:03;;;;;;;7.67;4.53;;;;;;;;;;5096855;28;20212;-65
2023/03/09 06:36:34;;;;;;;8.23;5.37;;;;;;;;;;5096993;28;20210;-63
2023/03/09 06:39:02;;;;;;;5.83;4.40;;;;;;;;;;5094962;28;20221;-65
2023/03/09 06:41:31;;;;;;;6.73;4.50;;;;;;;;;;5076319;28;20241;-65
2023/03/09 06:44:00;;;;;;;8.00;5.03;;;;;;;;;;5077593;28;20210;-65
2023/03/09 06:46:28;;;;;;;9.10;4.43;;;;;;;;;;5078008;28;20232;-64
2023/03/09 06:48:57;;;;;;;11.23;5.17;;;;;;;;;;5077937;28;20569;-64
2023/03/09 06:51:25;;;;;;;8.80;5.20;;;;;;;;;;5078390;28;20209;-64
2023/03/09 06:53:53;;;;;;;8.90;5.70;;;;;;;;;;5078451;28;20214;-64
2023/03/09 06:56:21;;;;;;;11.63;5.73;;;;;;;;;;5078055;28;20210;-64
2023/03/09 06:58:49;;;;;;;8.23;5.60;;;;;;;;;;5078251;28;20206;-64
2023/03/09 07:01:17;;;;;;;7.80;5.83;;;;;;;;;;5077913;28;20245;-64
2023/03/09 07:03:46;;;;;;;8.43;5.83;;;;;;;;;;5078168;28;20209;-63
2023/03/09 07:06:16;;;;;;;7.97;5.40;;;;;;;;;;5078150;28;20209;-64
2023/03/09 07:08:43;;;;;;;6.67;5.33;;;;;;;;;;5077680;28;20607;-64
2023/03/09 07:11:11;;;;;;;10.33;6.07;;;;;;;;;;5077703;28;20254;-65
2023/03/09 07:13:39;;;;;;;7.80;5.87;;;;;;;;;;5078153;28;20210;-63
2023/03/09 07:16:08;;;;;;;13.67;5.67;;;;;;;;;;5077715;28;20293;-64
2023/03/09 07:18:36;;;;;;;370.47;200.00;;;;;;;;;;5077870;28;20213;-63
2023/03/09 07:21:05;;;;;;;48.67;28.80;;;;;;;;;;5077823;28;20230;-62
2023/03/09 07:23:34;;;;;;;19.00;11.20;;;;;;;;;;5077586;28;20570;-63
2023/03/09 07:26:03;;;;;;;11.77;7.07;;;;;;;;;;5077731;28;20542;-63
2023/03/09 07:28:31;;;;;;;8.63;6.50;;;;;;;;;;5077740;28;20206;-65
2023/03/09 07:30:59;;;;;;;8.53;6.20;;;;;;;;;;5077693;28;20222;-65
2023/03/09 07:33:27;;;;;;;9.70;7.20;;;;;;;;;;5077650;28;20233;-65
2023/03/09 07:35:55;;;;;;;10.60;6.03;;;;;;;;;;5077868;28;20237;-65
2023/03/09 07:38:23;;;;;;;8.60;6.37;;;;;;;;;;5077260;28;20677;-65
2023/03/09 07:40:52;;;;;;;10.53;6.77;;;;;;;;;;5076943;28;20225;-65
2023/03/09 07:43:20;;;;;;;13.13;7.57;;;;;;;;;;5079375;28;20202;-64
2023/03/09 07:45:48;;;;;;;11.07;6.67;;;;;;;;;;5076927;28;20202;-64
2023/03/09 07:48:16;;;;;;;11.13;6.73;;;;;;;;;;5078955;28;20212;-63
2023/03/09 07:50:44;;;;;;;9.60;6.97;;;;;;;;;;5077694;28;20222;-65
2023/03/09 07:53:12;;;;;;;13.27;6.17;;;;;;;;;;5077867;28;20220;-66
2023/03/09 07:55:40;;;;;;;14.07;6.57;;;;;;;;;;5077477;28;20206;-66
2023/03/09 07:58:10;;;;;;;9.87;6.30;;;;;;;;;;5077224;28;20237;-63
2023/03/09 08:00:38;;;;;;;10.93;5.73;;;;;;;;;;5077332;28;20317;-63
2023/03/09 08:03:06;;;;;;;7.63;5.57;;;;;;;;;;5077741;28;20198;-61
2023/03/09 08:05:34;;;;;;;9.70;5.70;;;;;;;;;;5078861;28;20206;-64
2023/03/09 08:08:02;;;;;;;8.27;5.23;;;;;;;;;;5081728;28;20234;-64
2023/03/09 08:10:30;;;;;;;12.00;6.63;;;;;;;;;;5084881;28;20684;-65
2023/03/09 08:12:58;;;;;;;11.53;6.17;;;;;;;;;;5101604;28;20205;-64
2023/03/09 08:15:27;;;;;;;8.70;6.10;;;;;;;;;;5101387;28;20568;-64
2023/03/09 08:17:55;;;;;;;6.93;5.17;;;;;;;;;;5101125;28;20729;-63
2023/03/09 08:20:23;;;;;;;10.27;5.23;;;;;;;;;;5100807;28;20234;-64
2023/03/09 08:22:51;;;;;;;8.47;5.07;;;;;;;;;;5101345;28;20687;-64
2023/03/09 08:25:19;;;;;;;10.07;5.20;;;;;;;;;;5101430;28;20209;-64
2023/03/09 08:27:47;;;;;;;9.57;5.27;;;;;;;;;;5101528;28;20210;-65
2023/03/09 08:30:16;;;;;;;8.73;5.40;;;;;;;;;;5098694;28;20226;-64
2023/03/09 08:32:47;;;;;;;8.17;5.00;;;;;;;;;;5080790;28;20217;-64
2023/03/09 08:35:16;;;;;;;15.60;5.83;;;;;;;;;;5080119;28;20725;-62
2023/03/09 08:37:44;;;;;;;10.67;5.13;;;;;;;;;;5081583;28;20198;-62
2023/03/09 08:40:12;;;;;;;6.87;5.00;;;;;;;;;;5082912;28;20233;-62
2023/03/09 08:42:40;;;;;;;10.70;5.00;;;;;;;;;;5083033;28;20721;-64
2023/03/09 08:45:09;;;;;;;9.10;4.27;;;;;;;;;;5080599;28;20199;-63
2023/03/09 08:47:37;;;;;;;18.23;5.73;;;;;;;;;;5077763;28;20566;-63
2023/03/09 08:50:07;;;;;;;10.40;5.30;;;;;;;;;;5100711;28;20320;-63
2023/03/09 08:52:37;;;;;;;5.20;4.57;;;;;;;;;;5101040;28;20279;-63
2023/03/09 08:55:06;;;;;;;9.13;5.03;;;;;;;;;;5101271;28;20269;-63
2023/03/09 08:57:34;;;;;;;9.67;4.87;;;;;;;;;;5098370;28;20641;-63
2023/03/09 09:00:03;;;;;;;12.00;5.27;;;;;;;;;;5079816;28;20747;-63
2023/03/09 09:02:31;;;;;;;10.10;5.20;;;;;;;;;;5080621;28;20236;-62
2023/03/09 09:04:59;;;;;;;8.23;4.53;;;;;;;;;;5087367;28;20197;-61
2023/03/09 09:07:29;;;;;;;9.43;4.37;;;;;;;;;;5088107;28;20202;-61
2023/03/09 09:09:58;;;;;;;9.33;4.83;;;;;;;;;;5087526;28;20279;-61
2023/03/09 09:12:27;;;;;;;9.93;4.23;;;;;;;;;;5087539;28;20197;-60
2023/03/09 09:14:56;;;;;;;8.57;4.53;;;;;;;;;;5078961;28;20198;-62
2023/03/09 09:17:24;;;;;;;4.77;3.00;;;;;;;;;;5081725;28;20198;-61
2023/03/09 09:19:52;;;;;;;7.50;4.10;;;;;;;;;;5076687;28;20228;-62
2023/03/09 09:22:20;;;;;;;5.80;3.07;;;;;;;;;;5080120;28;20760;-62
2023/03/09 09:24:50;;;;;;;6.30;3.07;;;;;;;;;;5081351;28;20204;-63
2023/03/09 09:27:18;;;;;;;23.73;9.07;;;;;;;;;;5080000;28;20688;-64
2023/03/09 09:29:46;;;;;;;15.87;9.23;;;;;;;;;;5079290;28;20560;-61
2023/03/09 09:32:14;;;;;;;8.00;3.67;;;;;;;;;;5078392;28;20208;-60
2023/03/09 09:34:42;;;;;;;5.70;3.47;;;;;;;;;;5079627;28;20198;-60
2023/03/09 09:37:11;;;;;;;8.77;3.33;;;;;;;;;;5076895;28;20198;-60
2023/03/09 09:39:40;;;;;;;5.97;2.90;;;;;;;;;;5078991;28;20218;-60
2023/03/09 09:42:12;;;;;;;5.83;3.47;;;;;;;;;;5076635;28;20218;-62
2023/03/09 09:44:42;;;;;;;5.97;2.90;;;;;;;;;;5078329;28;20349;-64
2023/03/09 09:47:15;;;;;;;13.47;3.03;;;;;;;;;;5066295;28;20260;-63
2023/03/09 09:49:44;;;;;;;6.13;3.27;;;;;;;;;;5076552;28;20218;-64
2023/03/09 09:52:20;;;;;;;8.00;2.50;;;;;;;;;;5080222;28;21794;-64
2023/03/09 09:54:52;;;;;;;4.10;2.50;;;;;;;;;;5078570;28;20236;-63
2023/03/09 09:57:23;;;;;;;7.40;2.90;;;;;;;;;;5099306;28;20292;-62
2023/03/09 09:59:56;;;;;;;6.00;2.47;;;;;;;;;;5078809;28;20229;-63
2023/03/09 10:02:35;;;;;;;9.17;2.93;;;;;;;;;;5079175;28;20226;-62
2023/03/09 10:05:05;;;;;;;5.23;2.90;;;;;;;;;;5077675;28;20601;-62
2023/03/09 10:07:36;;;;;;;4.83;2.67;;;;;;;;;;5078698;28;20206;-62
2023/03/09 10:10:07;;;;;;;6.13;3.00;;;;;;;;;;5078591;28;20226;-63
2023/03/09 10:12:37;;;;;;;9.93;2.70;;;;;;;;;;5079014;28;20255;-63
2023/03/09 10:15:05;;;;;;;4.50;2.57;;;;;;;;;;5078644;28;20213;-63
2023/03/09 10:17:36;;;;;;;4.27;2.80;;;;;;;;;;5078607;28;20209;-63
2023/03/09 10:20:12;;;;;;;7.67;2.23;;;;;;;;;;5078260;28;20657;-61
2023/03/09 10:22:40;;;;;;;7.30;2.67;;;;;;;;;;5068933;28;20225;-62
2023/03/09 10:25:11;;;;;;;4.60;3.10;;;;;;;;;;5078671;28;20242;-63
2023/03/09 10:27:42;;;;;;;8.37;2.53;;;;;;;;;;5078174;28;20217;-64
2023/03/09 10:30:16;;;;;;;2.07;1.87;;;;;;;;;;5078165;28;20233;-62
2023/03/09 10:32:47;;;;;;;4.47;2.30;;;;;;;;;;5078214;28;20687;-63
2023/03/09 10:35:24;;;;;;;4.07;2.03;;;;;;;;;;5078235;28;20212;-63
2023/03/09 10:37:53;;;;;;;4.30;2.20;;;;;;;;;;5078231;28;20256;-63
2023/03/09 10:40:23;;;;;;;6.87;2.80;;;;;;;;;;5075011;28;20244;-63
2023/03/09 10:42:52;;;;;;;5.30;2.03;;;;;;;;;;5078080;28;20595;-63
2023/03/09 10:45:23;;;;;;;5.17;2.03;;;;;;;;;;5078233;28;20206;-63
2023/03/09 10:47:56;;;;;;;3.23;2.60;;;;;;;;;;5077831;28;20205;-63
2023/03/09 10:50:26;;;;;;;4.17;2.03;;;;;;;;;;5077914;28;20226;-64
2023/03/09 10:52:54;;;;;;;6.80;2.40;;;;;;;;;;5078225;28;20240;-63
2023/03/09 10:55:36;;;;;;;4.43;2.00;;;;;;;;;;5076094;28;20607;-64
2023/03/09 10:58:15;;;;;;;5.33;2.53;;;;;;;;;;5080242;28;20223;-63
2023/03/09 11:01:02;;;;;;;6.23;1.93;;;;;;;;;;5094539;28;20270;-65
2023/03/09 11:03:35;;;;;;;4.50;2.60;;;;;;;;;;5076951;28;20229;-64
2023/03/09 11:06:11;;;;;;;5.03;2.40;;;;;;;;;;5076826;28;20202;-64
2023/03/09 11:08:39;;;;;;;3.90;2.33;;;;;;;;;;5076634;28;20236;-65
2023/03/09 11:11:25;;;;;;;22.07;12.87;;;;;;;;;;5079242;28;20564;-64
2023/03/09 11:13:55;;;;;;;12.53;7.67;;;;;;;;;;5077186;28;20745;-65
2023/03/09 11:16:24;;;;;;;4.00;2.90;;;;;;;;;;5074817;28;20280;-63
2023/03/09 11:19:06;;;;;;;6.77;2.73;;;;;;;;;;5073359;28;20563;-64
2023/03/09 11:21:35;;;;;;;5.77;2.60;;;;;;;;;;5077238;28;20225;-63
2023/03/09 11:24:04;;;;;;;8.70;2.40;;;;;;;;;;5076108;28;20198;-64
2023/03/09 11:26:47;;;;;;;4.27;2.80;;;;;;;;;;5076895;28;20238;-64
2023/03/09 11:29:21;;;;;;;3.57;2.20;;;;;;;;;;5077257;28;20770;-64
2023/03/09 11:31:49;;;;;;;6.97;2.80;;;;;;;;;;5077609;28;20205;-64
2023/03/09 11:34:20;;;;;;;4.67;2.40;;;;;;;;;;5077379;28;20217;-64
2023/03/09 11:36:51;;;;;;;7.40;2.40;;;;;;;;;;5077308;28;20217;-64
2023/03/09 11:39:21;;;;;;;6.60;2.50;;;;;;;;;;5077341;28;20275;-65
2023/03/09 11:41:50;;;;;;;7.70;2.20;;;;;;;;;;5077168;28;20228;-63
2023/03/09 11:44:23;;;;;;;5.90;2.30;;;;;;;;;;5077553;28;20290;-62
2023/03/09 11:46:53;;;;;;;5.50;2.67;;;;;;;;;;5077713;28;20202;-63
2023/03/09 11:49:25;;;;;;;4.67;2.00;;;;;;;;;;5077663;28;20229;-63
2023/03/09 11:51:53;;;;;;;3.93;2.20;;;;;;;;;;5077581;28;20236;-62
2023/03/09 11:54:24;;;;;;;6.13;2.27;;;;;;;;;;5077586;28;20206;-62
2023/03/09 11:56:52;;;;;;;5.43;2.40;;;;;;;;;;5077154;28;20230;-63
2023/03/09 11:59:29;;;;;;;7.20;2.30;;;;;;;;;;5077290;28;20218;-64
2023/03/09 12:01:59;;;;;;;5.37;2.30;;;;;;;;;;5077485;28;20225;-63
2023/03/09 12:04:28;;;;;;;4.00;2.10;;;;;;;;;;5077381;28;20202;-65
2023/03/09 12:06:58;;;;;;;6.90;1.70;;;;;;;;;;5077635;28;20213;-63
2023/03/09 12:09:28;;;;;;;23.10;12.70;;;;;;;;;;5074594;28;20266;-63
2023/03/09 12:11:58;;;;;;;8.73;2.53;;;;;;;;;;5069055;28;20681;-63
2023/03/09 12:14:29;;;;;;;3.37;1.73;;;;;;;;;;5077494;28;20239;-64
2023/03/09 12:17:03;;;;;;;4.33;1.77;;;;;;;;;;5077151;28;20657;-63
2023/03/09 12:19:32;;;;;;;5.43;1.43;;;;;;;;;;5076948;28;20248;-63
2023/03/09 12:22:02;;;;;;;2.40;1.10;;;;;;;;;;5077129;28;20326;-63
2023/03/09 12:24:33;;;;;;;5.07;1.40;;;;;;;;;;5076952;28;20532;-63
2023/03/09 12:27:06;;;;;;;10.20;3.00;;;;;;;;;;5077457;28;20259;-63
2023/03/09 12:29:37;;;;;;;2.63;1.00;;;;;;;;;;5077030;28;20226;-63
2023/03/09 12:32:38;;;;;;;4.43;1.30;;;;;;;;;;5077144;28;20293;-64
2023/03/09 12:35:21;;;;;;;2.40;1.30;;;;;;;;;;5076716;28;20292;-63
2023/03/09 12:37:58;;;;;;;5.30;1.20;;;;;;;;;;5044449;28;20210;-63
2023/03/09 12:40:37;;;;;;;4.37;1.03;;;;;;;;;;5076778;28;20222;-64
2023/03/09 12:43:24;;;;;;;5.90;1.70;;;;;;;;;;5077230;28;20270;-62
2023/03/09 12:45:53;;;;;;;5.23;1.20;;;;;;;;;;5077120;28;20212;-63
2023/03/09 12:48:23;;;;;;;3.53;1.40;;;;;;;;;;5076908;28;20216;-63
2023/03/09 12:50:55;;;;;;;4.40;1.47;;;;;;;;;;5074455;28;20222;-64
2023/03/09 12:53:24;;;;;;;4.33;1.33;;;;;;;;;;5067827;28;20673;-64
2023/03/09 12:55:54;;;;;;;8.17;1.67;;;;;;;;;;5079273;28;20677;-64
2023/03/09 12:58:42;;;;;;;4.03;1.10;;;;;;;;;;5080643;28;20194;-63
2023/03/09 13:01:13;;;;;;;5.10;1.37;;;;;;;;;;5100747;28;20236;-63
2023/03/09 13:03:45;;;;;;;2.00;1.33;;;;;;;;;;5100176;28;20746;-63
2023/03/09 13:06:23;;;;;;;4.43;1.20;;;;;;;;;;5100722;28;20202;-63
2023/03/09 13:08:54;;;;;;;5.43;1.30;;;;;;;;;;5100331;28;20245;-62
2023/03/09 13:11:37;;;;;;;7.60;2.43;;;;;;;;;;5100729;28;20224;-63
2023/03/09 13:14:06;;;;;;;11.13;2.90;;;;;;;;;;5100836;28;20205;-63
2023/03/09 13:16:49;;;;;;;8.83;3.17;;;;;;;;;;5100218;28;20206;-62
2023/03/09 13:19:37;;;;;;;5.53;2.50;;;;;;;;;;5099998;28;20235;-63
2023/03/09 13:22:14;;;;;;;4.57;2.60;;;;;;;;;;5068032;28;20213;-63
2023/03/09 13:24:43;;;;;;;6.57;2.53;;;;;;;;;;5079806;28;20303;-63
2023/03/09 13:27:15;;;;;;;13.60;3.90;;;;;;;;;;5079886;28;20665;-63
2023/03/09 13:29:44;;;;;;;9.00;3.83;;;;;;;;;;5079676;28;20700;-63
2023/03/09 13:32:21;;;;;;;4.87;3.60;;;;;;;;;;5080128;28;20281;-63
2023/03/09 13:34:51;;;;;;;4.00;1.90;;;;;;;;;;5079834;28;20210;-63
2023/03/09 13:37:21;;;;;;;5.77;2.60;;;;;;;;;;5079749;28;20213;-63
2023/03/09 13:39:59;;;;;;;5.50;2.27;;;;;;;;;;5079791;28;20229;-64
2023/03/09 13:42:27;;;;;;;5.17;2.00;;;;;;;;;;5079971;28;20238;-64
2023/03/09 13:44:55;;;;;;;6.50;2.87;;;;;;;;;;5079852;28;20316;-62
2023/03/09 13:47:25;;;;;;;3.90;2.13;;;;;;;;;;5079359;28;20242;-64
2023/03/09 13:49:54;;;;;;;4.53;2.27;;;;;;;;;;5079410;28;20268;-64
2023/03/09 13:52:23;;;;;;;4.90;1.83;;;;;;;;;;5079512;28;20205;-63
2023/03/09 13:54:53;;;;;;;4.83;2.30;;;;;;;;;;5079287;28;20234;-62
2023/03/09 13:57:21;;;;;;;7.97;3.47;;;;;;;;;;5079599;28;20289;-63
2023/03/09 13:59:56;;;;;;;6.53;3.13;;;;;;;;;;5079166;28;20226;-63
2023/03/09 14:02:25;;;;;;;9.00;3.03;;;;;;;;;;5079321;28;20288;-63
2023/03/09 14:05:04;;;;;;;6.23;2.97;;;;;;;;;;5078117;28;20225;-62
2023/03/09 14:07:53;;;;;;;37.37;10.17;;;;;;;;;;5079493;28;20341;-63
2023/03/09 14:10:25;;;;;;;16.53;6.17;;;;;;;;;;5078954;28;20250;-64
2023/03/09 14:12:54;;;;;;;46.67;11.50;;;;;;;;;;5079270;28;20209;-64
2023/03/09 14:15:23;;;;;;;17.60;5.90;;;;;;;;;;5079283;28;20237;-64
2023/03/09 14:17:54;;;;;;;7.60;3.23;;;;;;;;;;5078832;28;20210;-64
2023/03/09 14:20:37;;;;;;;7.20;3.10;;;;;;;;;;5078913;28;20320;-64
2023/03/09 14:23:17;;;;;;;4.73;2.83;;;;;;;;;;5078875;28;20220;-64
2023/03/09 14:25:45;;;;;;;5.63;3.27;;;;;;;;;;5078677;28;20238;-64
2023/03/09 14:28:34;;;;;;;3.77;2.50;;;;;;;;;;5079013;28;20236;-63
2023/03/09 14:31:23;;;;;;;4.60;2.97;;;;;;;;;;5074040;28;20257;-64
2023/03/09 14:33:58;;;;;;;4.40;3.13;;;;;;;;;;5064284;28;20682;-62
2023/03/09 14:36:29;;;;;;;6.23;3.00;;;;;;;;;;5078477;28;20233;-64
2023/03/09 14:38:57;;;;;;;4.83;2.63;;;;;;;;;;5078334;28;20202;-64
2023/03/09 14:41:29;;;;;;;4.83;2.53;;;;;;;;;;5078475;28;20213;-64
2023/03/09 14:43:57;;;;;;;5.60;2.50;;;;;;;;;;5078541;28;20233;-64
2023/03/09 14:46:26;;;;;;;7.10;2.57;;;;;;;;;;5078221;28;20737;-63
2023/03/09 14:48:55;;;;;;;5.17;2.63;;;;;;;;;;5078325;28;20210;-64
2023/03/09 14:51:24;;;;;;;4.50;3.13;;;;;;;;;;5078468;28;20277;-64
2023/03/09 14:53:57;;;;;;;6.23;2.53;;;;;;;;;;5073301;28;20558;-63
2023/03/09 14:56:26;;;;;;;7.97;3.23;;;;;;;;;;5072993;28;20579;-64
2023/03/09 14:58:54;;;;;;;5.07;2.00;;;;;;;;;;5078083;28;20206;-63